createdAt,value
2023-12-01T12:34:54.749Z,9.52
2023-12-01T12:36:28.330Z,9.56
2023-12-01T12:38:03.662Z,9.60
2023-12-01T12:39:36.005Z,9.60
2023-12-01T12:41:23.814Z,9.58
2023-12-01T12:43:00.887Z,9.56
2023-12-01T12:44:36.400Z,9.58
2023-12-01T12:46:15.096Z,9.54
2023-12-01T12:47:47.596Z,9.55
2023-12-01T12:49:20.978Z,9.56
2023-12-01T12:50:55.017Z,9.57
2023-12-01T12:52:28.812Z,9.56
2023-12-01T12:54:01.681Z,9.56
2023-12-01T12:55:38.361Z,9.64
2023-12-01T12:57:11.331Z,9.68
2023-12-01T12:58:48.079Z,9.73
2023-12-01T13:00:20.922Z,9.75
2023-12-01T13:01:54.948Z,9.76
2023-12-01T13:03:27.609Z,9.77
2023-12-01T13:05:01.327Z,9.81
2023-12-01T13:06:36.447Z,9.80
2023-12-01T13:08:20.674Z,9.81
2023-12-01T13:09:54.850Z,9.82
2023-12-01T13:11:28.376Z,9.84
2023-12-01T13:13:01.701Z,9.85
2023-12-01T13:14:35.808Z,9.85
2023-12-01T13:16:09.234Z,9.85
2023-12-01T13:17:43.104Z,9.84
2023-12-01T13:19:15.432Z,9.76
2023-12-01T13:20:48.843Z,9.78
2023-12-01T13:22:23.637Z,9.75
2023-12-01T13:23:57.233Z,9.70
2023-12-01T13:25:30.609Z,9.73
2023-12-01T13:27:05.190Z,9.73
2023-12-01T13:28:38.447Z,9.63
2023-12-01T13:30:12.373Z,9.63
2023-12-01T13:31:45.841Z,9.57
2023-12-01T13:33:18.207Z,9.52
2023-12-01T13:34:51.410Z,9.53
2023-12-01T13:36:23.893Z,9.42
2023-12-01T13:37:59.027Z,9.37
2023-12-01T13:39:31.470Z,9.29
2023-12-01T13:41:04.794Z,9.24
2023-12-01T13:42:38.156Z,9.12
2023-12-01T13:44:12.482Z,9.05
2023-12-01T13:45:45.103Z,9.01
2023-12-01T13:47:20.045Z,8.98
2023-12-01T13:48:53.420Z,8.98
2023-12-01T13:50:26.213Z,8.97
2023-12-01T13:51:59.793Z,8.92
2023-12-01T13:53:34.362Z,8.94
2023-12-01T13:55:08.163Z,8.93
2023-12-01T13:56:41.829Z,8.91
2023-12-01T13:58:14.280Z,8.90
2023-12-01T13:59:47.753Z,8.84
2023-12-01T14:01:20.101Z,8.76
2023-12-01T14:02:53.717Z,8.71
2023-12-01T14:04:26.315Z,8.62
2023-12-01T14:05:59.698Z,8.62
2023-12-01T14:07:32.053Z,8.57
2023-12-01T14:09:07.761Z,8.54
2023-12-01T14:10:40.548Z,8.44
2023-12-01T14:12:14.041Z,8.49
2023-12-01T14:13:46.608Z,8.45
2023-12-01T14:15:20.577Z,8.34
2023-12-01T14:16:53.071Z,8.34
2023-12-01T14:18:26.475Z,8.25
2023-12-01T14:19:58.923Z,8.25
2023-12-01T14:21:32.803Z,8.21
2023-12-01T14:23:05.347Z,8.11
2023-12-01T14:24:40.030Z,8.06
2023-12-01T14:26:12.515Z,8.01
2023-12-01T14:27:46.293Z,7.96
2023-12-01T14:29:18.585Z,7.90
2023-12-01T14:30:52.283Z,7.88
2023-12-01T14:32:26.022Z,7.84
2023-12-01T14:33:58.656Z,7.82
2023-12-01T14:35:32.122Z,7.69
2023-12-01T14:37:04.976Z,7.71
2023-12-01T14:38:38.840Z,7.67
2023-12-01T14:40:13.373Z,7.59
2023-12-01T14:41:47.094Z,7.56
2023-12-01T14:43:20.465Z,7.50
2023-12-01T14:44:52.989Z,7.43
2023-12-01T14:46:27.580Z,7.43
2023-12-01T14:48:00.762Z,7.36
2023-12-01T14:49:34.097Z,7.25
2023-12-01T14:51:07.046Z,7.30
2023-12-01T14:52:40.498Z,7.28
2023-12-01T14:54:13.107Z,7.26
2023-12-01T14:55:48.853Z,7.26
2023-12-01T14:57:22.408Z,7.22
2023-12-01T14:58:56.055Z,7.19
2023-12-01T15:00:28.471Z,7.08
2023-12-01T15:02:03.383Z,7.04
2023-12-01T15:03:36.386Z,6.97
2023-12-01T15:05:10.552Z,6.92
2023-12-01T15:06:42.924Z,6.92
2023-12-01T15:08:16.454Z,6.90
2023-12-01T15:09:48.721Z,6.87
2023-12-01T15:11:24.669Z,6.87
2023-12-01T15:12:58.138Z,6.87
2023-12-01T15:14:30.731Z,6.88
2023-12-01T15:16:04.084Z,6.86
2023-12-01T15:17:37.755Z,6.84
2023-12-01T15:19:10.293Z,6.82
2023-12-01T15:20:46.747Z,6.78
2023-12-01T15:22:19.419Z,6.70
2023-12-01T15:23:54.180Z,6.67
2023-12-01T15:25:27.933Z,6.59
2023-12-01T15:27:01.954Z,6.61
2023-12-01T15:28:35.326Z,6.55
2023-12-01T15:30:08.430Z,6.36
2023-12-01T15:31:41.788Z,6.28
2023-12-01T15:33:14.488Z,6.24
2023-12-01T15:34:47.865Z,6.14
2023-12-01T15:36:20.833Z,6.14
2023-12-01T15:37:54.218Z,6.08
2023-12-01T15:39:26.776Z,6.02
2023-12-01T15:41:00.017Z,6.00
2023-12-01T15:42:34.039Z,5.94
2023-12-01T15:44:07.337Z,5.84
2023-12-01T15:45:39.837Z,5.73
2023-12-01T15:47:12.972Z,5.69
2023-12-01T15:48:45.557Z,5.64
2023-12-01T15:50:18.816Z,5.67
2023-12-01T15:51:51.788Z,5.68
2023-12-01T15:53:25.221Z,5.67
2023-12-01T15:54:57.916Z,5.61
2023-12-01T15:56:31.223Z,5.60
2023-12-01T15:58:04.918Z,5.54
2023-12-01T15:59:38.724Z,5.48
2023-12-01T16:01:11.297Z,5.41
2023-12-01T16:02:44.635Z,5.37
2023-12-01T16:04:17.207Z,5.29
2023-12-01T16:05:50.504Z,5.21
2023-12-01T16:07:22.919Z,5.20
2023-12-01T16:08:56.131Z,5.18
2023-12-01T16:10:32.593Z,5.15
2023-12-01T16:12:06.306Z,5.09
2023-12-01T16:13:41.312Z,5.08
2023-12-01T16:15:17.805Z,4.92
2023-12-01T16:16:52.473Z,4.84
2023-12-01T16:18:28.541Z,4.80
2023-12-01T16:20:02.502Z,4.78
2023-12-01T16:21:35.856Z,4.77
2023-12-01T16:23:10.232Z,4.76
2023-12-01T16:24:48.771Z,4.74
2023-12-01T16:26:21.761Z,4.74
2023-12-01T16:27:55.079Z,4.72
2023-12-01T16:29:29.818Z,4.71
2023-12-01T16:31:02.010Z,4.69
2023-12-01T16:32:35.995Z,4.66
2023-12-01T16:34:08.228Z,4.63
2023-12-01T16:35:42.026Z,4.58
2023-12-01T16:37:14.222Z,4.47
2023-12-01T16:38:47.672Z,4.40
2023-12-01T16:40:21.303Z,4.25
2023-12-01T16:41:55.611Z,4.32
2023-12-01T16:43:28.265Z,4.24
2023-12-01T16:45:03.635Z,4.25
2023-12-01T16:46:35.902Z,4.27
2023-12-01T16:48:09.586Z,4.25
2023-12-01T16:49:41.958Z,4.23
2023-12-01T16:51:15.390Z,4.23
2023-12-01T16:52:47.700Z,4.25
2023-12-01T16:54:21.012Z,4.24
2023-12-01T16:55:53.326Z,4.21
2023-12-01T16:57:27.033Z,4.18
2023-12-01T16:58:59.331Z,4.16
2023-12-01T17:00:34.206Z,4.14
2023-12-01T17:02:06.779Z,4.12
2023-12-01T17:03:40.398Z,4.07
2023-12-01T17:05:12.802Z,4.03
2023-12-01T17:06:46.123Z,3.97
2023-12-01T17:08:18.760Z,3.95
2023-12-01T17:09:52.064Z,3.93
2023-12-01T17:11:24.290Z,3.89
2023-12-01T17:12:57.624Z,3.84
2023-12-01T17:14:36.881Z,3.85
2023-12-01T17:16:13.348Z,3.81
2023-12-01T17:17:45.692Z,3.82
2023-12-01T17:19:19.496Z,3.80
2023-12-01T17:20:51.798Z,3.78
2023-12-01T17:22:25.243Z,3.78
2023-12-01T17:23:57.572Z,3.80
2023-12-01T17:25:31.137Z,3.82
2023-12-01T17:27:03.459Z,3.78
2023-12-01T17:28:36.798Z,3.85
2023-12-01T17:30:11.290Z,3.81
2023-12-01T17:31:45.086Z,3.81
2023-12-01T17:33:18.476Z,3.72
2023-12-01T17:34:50.871Z,3.69
2023-12-01T17:36:27.239Z,3.62
2023-12-01T17:37:59.734Z,3.59
2023-12-01T17:39:33.155Z,3.47
2023-12-01T17:41:06.316Z,3.42
2023-12-01T17:42:39.954Z,3.40
2023-12-01T17:44:12.760Z,3.45
2023-12-01T17:45:46.664Z,3.40
2023-12-01T17:47:20.716Z,3.48
2023-12-01T17:48:53.946Z,3.51
2023-12-01T17:50:26.725Z,3.54
2023-12-01T17:52:00.104Z,3.51
2023-12-01T17:53:32.564Z,3.54
2023-12-01T17:55:06.244Z,3.55
2023-12-01T17:56:38.577Z,3.53
2023-12-01T17:58:11.738Z,3.55
2023-12-01T17:59:44.141Z,3.54
2023-12-01T18:01:17.420Z,3.52
2023-12-01T18:02:52.360Z,3.49
2023-12-01T18:04:25.783Z,3.48
2023-12-01T18:05:58.125Z,3.49
2023-12-01T18:07:31.459Z,3.45
2023-12-01T18:09:04.064Z,3.44
2023-12-01T18:10:37.345Z,3.41
2023-12-01T18:12:10.671Z,3.35
2023-12-01T18:13:43.080Z,3.35
2023-12-01T18:15:16.617Z,3.28
2023-12-01T18:16:50.473Z,3.21
2023-12-01T18:18:26.517Z,3.17
2023-12-01T18:20:00.909Z,3.18
2023-12-01T18:21:33.440Z,3.20
2023-12-01T18:23:06.615Z,3.17
2023-12-01T18:24:38.916Z,3.13
2023-12-01T18:26:12.108Z,3.07
2023-12-01T18:27:44.560Z,3.05
2023-12-01T18:29:17.887Z,3.08
2023-12-01T18:30:50.275Z,3.06
2023-12-01T18:32:23.538Z,3.06
2023-12-01T18:33:57.380Z,3.08
2023-12-01T18:35:30.774Z,3.06
2023-12-01T18:37:03.273Z,3.09
2023-12-01T18:38:36.504Z,3.10
2023-12-01T18:40:09.935Z,3.07
2023-12-01T18:41:44.486Z,3.09
2023-12-01T18:43:16.902Z,2.95
2023-12-01T18:44:50.152Z,3.03
2023-12-01T18:46:22.747Z,3.00
2023-12-01T18:47:56.194Z,2.95
2023-12-01T18:49:31.254Z,2.88
2023-12-01T18:51:07.016Z,2.84
2023-12-01T18:52:40.417Z,2.87
2023-12-01T18:54:14.252Z,2.88
2023-12-01T18:55:47.609Z,2.88
2023-12-01T18:57:19.911Z,2.87
2023-12-01T18:58:53.887Z,2.83
2023-12-01T19:00:27.295Z,2.90
2023-12-01T19:02:01.099Z,2.84
2023-12-01T19:03:33.652Z,2.88
2023-12-01T19:05:09.387Z,2.89
2023-12-01T19:06:41.680Z,2.82
2023-12-01T19:08:15.125Z,2.79
2023-12-01T19:09:47.316Z,2.72
2023-12-01T19:11:21.084Z,2.63
2023-12-01T19:12:53.449Z,2.55
2023-12-01T19:14:27.485Z,2.49
2023-12-01T19:15:59.718Z,2.49
2023-12-01T19:17:33.485Z,2.43
2023-12-01T19:19:05.925Z,2.32
2023-12-01T19:20:40.748Z,2.37
2023-12-01T19:22:13.022Z,2.36
2023-12-01T19:23:46.426Z,2.36
2023-12-01T19:25:19.743Z,2.39
2023-12-01T19:26:52.820Z,2.40
2023-12-01T19:28:26.035Z,2.43
2023-12-01T19:29:58.538Z,2.41
2023-12-01T19:31:31.875Z,2.44
2023-12-01T19:33:04.320Z,2.45
2023-12-01T19:34:37.712Z,2.42
2023-12-01T19:36:12.295Z,2.42
2023-12-01T19:37:45.474Z,2.39
2023-12-01T19:39:18.111Z,2.37
2023-12-01T19:40:51.408Z,2.30
2023-12-01T19:42:23.993Z,2.29
2023-12-01T19:44:00.282Z,2.26
2023-12-01T19:45:32.955Z,2.20
2023-12-01T19:47:06.506Z,2.15
2023-12-01T19:48:39.123Z,2.13
2023-12-01T19:50:12.431Z,2.13
2023-12-01T19:51:46.428Z,2.17
2023-12-01T19:53:19.710Z,2.19
2023-12-01T19:54:52.097Z,2.22
2023-12-01T19:56:25.398Z,2.25
2023-12-01T19:57:57.881Z,2.27
2023-12-01T19:59:31.121Z,2.27
2023-12-01T20:01:03.527Z,2.25
2023-12-01T20:02:36.707Z,2.21
2023-12-01T20:04:09.079Z,2.14
2023-12-01T20:05:42.454Z,2.12
2023-12-01T20:07:17.318Z,2.07
2023-12-01T20:08:49.637Z,2.03
2023-12-01T20:10:23.198Z,2.01
2023-12-01T20:11:55.498Z,2.01
2023-12-01T20:13:28.783Z,2.01
2023-12-01T20:15:01.101Z,2.01
2023-12-01T20:16:35.316Z,2.04
2023-12-01T20:18:07.772Z,2.03
2023-12-01T20:19:41.289Z,2.03
2023-12-01T20:21:13.573Z,1.99
2023-12-01T20:22:48.573Z,1.95
2023-12-01T20:24:20.977Z,1.91
2023-12-01T20:25:54.242Z,1.83
2023-12-01T20:27:27.177Z,1.86
2023-12-01T20:29:00.696Z,1.86
2023-12-01T20:30:32.993Z,1.77
2023-12-01T20:32:07.345Z,1.80
2023-12-01T20:33:39.612Z,1.71
2023-12-01T20:35:13.686Z,1.81
2023-12-01T20:36:45.984Z,1.82
2023-12-01T20:38:20.579Z,1.83
2023-12-01T20:39:53.822Z,1.76
2023-12-01T20:41:27.648Z,1.80
2023-12-01T20:43:01.192Z,1.81
2023-12-01T20:44:33.597Z,1.84
2023-12-01T20:46:09.188Z,1.81
2023-12-01T20:47:41.628Z,1.73
2023-12-01T20:49:16.035Z,1.80
2023-12-01T20:50:48.460Z,1.81
2023-12-01T20:52:21.853Z,1.82
2023-12-01T20:53:55.645Z,1.82
2023-12-01T20:55:28.863Z,1.80
2023-12-01T20:57:02.155Z,1.79
2023-12-01T20:58:34.477Z,1.76
2023-12-01T21:00:09.686Z,1.74
2023-12-01T21:01:42.985Z,1.75
2023-12-01T21:03:16.749Z,1.67
2023-12-01T21:04:50.130Z,1.63
2023-12-01T21:06:23.705Z,1.59
2023-12-01T21:07:56.136Z,1.60
2023-12-01T21:09:31.110Z,1.56
2023-12-01T21:11:03.398Z,1.59
2023-12-01T21:12:36.865Z,1.50
2023-12-01T21:14:09.229Z,1.61
2023-12-01T21:15:42.642Z,1.57
2023-12-01T21:17:14.886Z,1.59
2023-12-01T21:18:48.379Z,1.57
2023-12-01T21:20:23.232Z,1.57
2023-12-01T21:21:56.885Z,1.49
2023-12-01T21:23:29.224Z,1.45
2023-12-01T21:25:06.557Z,1.45
2023-12-01T21:26:38.994Z,1.44
2023-12-01T21:28:12.185Z,1.43
2023-12-01T21:29:44.653Z,1.39
2023-12-01T21:31:20.738Z,1.40
2023-12-01T21:32:53.005Z,1.34
2023-12-01T21:34:26.332Z,1.26
2023-12-01T21:35:58.777Z,1.30
2023-12-01T21:37:32.311Z,1.29
2023-12-01T21:39:06.361Z,1.21
2023-12-01T21:40:44.607Z,1.19
2023-12-01T21:42:17.047Z,1.20
2023-12-01T21:43:50.705Z,1.22
2023-12-01T21:45:22.968Z,1.21
2023-12-01T21:46:56.179Z,1.19
2023-12-01T21:48:28.707Z,1.07
2023-12-01T21:50:05.945Z,1.25
2023-12-01T21:51:40.729Z,1.29
2023-12-01T21:53:13.899Z,1.23
2023-12-01T21:54:46.288Z,1.23
2023-12-01T21:56:21.071Z,1.28
2023-12-01T21:57:56.045Z,1.29
2023-12-01T21:59:30.659Z,1.26
2023-12-01T22:01:05.124Z,1.28
2023-12-01T22:02:38.432Z,1.28
2023-12-01T22:04:10.600Z,1.28
2023-12-01T22:05:43.957Z,1.28
2023-12-01T22:07:16.248Z,1.29
2023-12-01T22:08:49.647Z,1.28
2023-12-01T22:10:21.911Z,1.28
2023-12-01T22:11:56.594Z,1.22
2023-12-01T22:13:28.906Z,1.14
2023-12-01T22:15:02.252Z,1.26
2023-12-01T22:16:34.569Z,1.24
2023-12-01T22:18:07.943Z,1.20
2023-12-01T22:19:40.385Z,1.15
2023-12-01T22:21:13.775Z,1.20
2023-12-01T22:22:47.104Z,1.20
2023-12-01T22:24:19.346Z,1.20
2023-12-01T22:25:52.736Z,1.18
2023-12-01T22:27:26.518Z,1.18
2023-12-01T22:28:59.842Z,1.18
2023-12-01T22:30:32.010Z,1.17
2023-12-01T22:32:05.858Z,1.09
2023-12-01T22:33:38.285Z,1.13
2023-12-01T22:35:11.648Z,1.09
2023-12-01T22:36:43.962Z,1.05
2023-12-01T22:38:17.335Z,1.03
2023-12-01T22:39:49.987Z,0.97
2023-12-01T22:41:23.255Z,0.95
2023-12-01T22:42:56.874Z,0.95
2023-12-01T22:44:31.900Z,0.88
2023-12-01T22:46:05.015Z,0.81
2023-12-01T22:47:38.254Z,0.82
2023-12-01T22:49:11.378Z,0.81
2023-12-01T22:50:44.732Z,0.82
2023-12-01T22:52:16.958Z,0.80
2023-12-01T22:53:51.251Z,0.83
2023-12-01T22:55:24.708Z,0.85
2023-12-01T22:56:57.674Z,0.81
2023-12-01T22:58:32.481Z,0.79
2023-12-01T23:00:16.021Z,0.73
2023-12-01T23:01:49.502Z,0.78
2023-12-01T23:03:22.060Z,0.79
2023-12-01T23:04:55.618Z,0.76
2023-12-01T23:06:28.090Z,0.77
2023-12-01T23:08:01.898Z,0.75
2023-12-01T23:09:34.359Z,0.79
2023-12-01T23:11:09.410Z,0.80
2023-12-01T23:12:41.880Z,0.80
2023-12-01T23:14:16.566Z,0.84
2023-12-01T23:15:50.190Z,0.87
2023-12-01T23:17:22.732Z,0.90
2023-12-01T23:18:56.179Z,0.91
2023-12-01T23:20:28.922Z,0.92
2023-12-01T23:22:02.528Z,0.91
2023-12-01T23:23:34.959Z,0.92
2023-12-01T23:25:10.596Z,0.90
2023-12-01T23:26:44.729Z,0.86
2023-12-01T23:28:18.098Z,0.81
2023-12-01T23:29:51.814Z,0.84
2023-12-01T23:31:25.306Z,0.81
2023-12-01T23:32:57.706Z,0.79
2023-12-01T23:34:31.200Z,0.76
2023-12-01T23:36:03.935Z,0.71
2023-12-01T23:37:37.912Z,0.71
2023-12-01T23:39:11.187Z,0.70
2023-12-01T23:40:43.496Z,0.63
2023-12-01T23:42:16.761Z,0.68
2023-12-01T23:43:50.098Z,0.58
2023-12-01T23:45:23.789Z,0.68
2023-12-01T23:46:57.094Z,0.67
2023-12-01T23:48:29.454Z,0.66
2023-12-01T23:50:03.064Z,0.66
2023-12-01T23:51:36.807Z,0.65
2023-12-01T23:53:09.200Z,0.63
2023-12-01T23:54:42.605Z,0.60
2023-12-01T23:56:15.056Z,0.55
2023-12-01T23:57:48.561Z,0.62
2023-12-01T23:59:21.393Z,0.61
